sensor_id;sensor_type;location;lat;lon;timestamp;P1;durP1;ratioP1;P2;durP2;ratioP2
2884;SDS011;54691;48.262;11.586;2022-12-07T00:01:57;25.97;;;5.43;;
2884;SDS011;54691;48.262;11.586;2022-12-07T00:08:59;11.03;;;4.80;;
2884;SDS011;54691;48.262;11.586;2022-12-07T00:16:00;10.05;;;4.95;;
2884;SDS011;54691;48.262;11.586;2022-12-07T00:22:57;10.60;;;4.70;;
2884;SDS011;54691;48.262;11.586;2022-12-07T00:29:54;10.88;;;5.30;;
2884;SDS011;54691;48.262;11.586;2022-12-07T00:36:51;12.15;;;4.33;;
2884;SDS011;54691;48.262;11.586;2022-12-07T00:43:49;9.95;;;4.83;;
2884;SDS011;54691;48.262;11.586;2022-12-07T00:50:46;10.60;;;4.45;;
2884;SDS011;54691;48.262;11.586;2022-12-07T00:57:43;11.85;;;5.50;;
2884;SDS011;54691;48.262;11.586;2022-12-07T01:04:40;10.88;;;5.05;;
2884;SDS011;54691;48.262;11.586;2022-12-07T01:11:37;10.88;;;5.03;;
2884;SDS011;54691;48.262;11.586;2022-12-07T01:18:35;15.32;;;5.45;;
2884;SDS011;54691;48.262;11.586;2022-12-07T01:25:32;13.88;;;6.25;;
2884;SDS011;54691;48.262;11.586;2022-12-07T01:32:29;12.95;;;5.17;;
2884;SDS011;54691;48.262;11.586;2022-12-07T01:39:26;13.75;;;5.15;;
2884;SDS011;54691;48.262;11.586;2022-12-07T01:46:23;12.33;;;5.03;;
2884;SDS011;54691;48.262;11.586;2022-12-07T01:53:20;11.38;;;4.45;;
2884;SDS011;54691;48.262;11.586;2022-12-07T02:00:18;11.85;;;5.62;;
2884;SDS011;54691;48.262;11.586;2022-12-07T02:07:15;15.50;;;6.15;;
2884;SDS011;54691;48.262;11.586;2022-12-07T02:14:12;13.22;;;5.97;;
2884;SDS011;54691;48.262;11.586;2022-12-07T02:31:59;13.53;;;5.17;;
2884;SDS011;54691;48.262;11.586;2022-12-07T02:38:58;14.38;;;5.05;;
2884;SDS011;54691;48.262;11.586;2022-12-07T02:42:34;17.00;;;6.55;;
2884;SDS011;54691;48.262;11.586;2022-12-07T02:46:03;15.30;;;5.55;;
2884;SDS011;54691;48.262;11.586;2022-12-07T02:53:01;11.90;;;6.15;;
2884;SDS011;54691;48.262;11.586;2022-12-07T03:00:08;15.20;;;6.85;;
2884;SDS011;54691;48.262;11.586;2022-12-07T03:03:37;17.95;;;7.15;;
2884;SDS011;54691;48.262;11.586;2022-12-07T03:10:48;17.05;;;6.87;;
2884;SDS011;54691;48.262;11.586;2022-12-07T03:14:17;15.10;;;7.00;;
2884;SDS011;54691;48.262;11.586;2022-12-07T03:21:14;16.45;;;5.95;;
2884;SDS011;54691;48.262;11.586;2022-12-07T03:28:18;17.25;;;6.65;;
2884;SDS011;54691;48.262;11.586;2022-12-07T03:35:12;14.38;;;6.22;;
2884;SDS011;54691;48.262;11.586;2022-12-07T03:42:11;17.52;;;7.30;;
2884;SDS011;54691;48.262;11.586;2022-12-07T03:49:10;16.87;;;6.85;;
2884;SDS011;54691;48.262;11.586;2022-12-07T03:56:07;20.08;;;6.55;;
2884;SDS011;54691;48.262;11.586;2022-12-07T04:03:04;11.57;;;4.95;;
2884;SDS011;54691;48.262;11.586;2022-12-07T04:10:02;14.75;;;6.62;;
2884;SDS011;54691;48.262;11.586;2022-12-07T04:17:00;16.45;;;7.17;;
2884;SDS011;54691;48.262;11.586;2022-12-07T04:23:57;15.32;;;6.30;;
2884;SDS011;54691;48.262;11.586;2022-12-07T04:30:54;15.98;;;6.25;;
2884;SDS011;54691;48.262;11.586;2022-12-07T04:37:51;20.25;;;7.67;;
2884;SDS011;54691;48.262;11.586;2022-12-07T04:44:50;14.65;;;6.53;;
2884;SDS011;54691;48.262;11.586;2022-12-07T04:51:47;15.48;;;7.55;;
2884;SDS011;54691;48.262;11.586;2022-12-07T04:58:44;17.57;;;6.75;;
2884;SDS011;54691;48.262;11.586;2022-12-07T05:05:42;19.85;;;7.28;;
2884;SDS011;54691;48.262;11.586;2022-12-07T05:12:39;19.45;;;7.53;;
2884;SDS011;54691;48.262;11.586;2022-12-07T05:19:35;20.97;;;6.92;;
2884;SDS011;54691;48.262;11.586;2022-12-07T05:26:33;24.50;;;6.95;;
2884;SDS011;54691;48.262;11.586;2022-12-07T05:33:30;17.07;;;7.20;;
2884;SDS011;54691;48.262;11.586;2022-12-07T05:40:27;17.50;;;6.62;;
2884;SDS011;54691;48.262;11.586;2022-12-07T05:47:24;21.87;;;7.35;;
2884;SDS011;54691;48.262;11.586;2022-12-07T05:54:21;16.52;;;6.10;;
2884;SDS011;54691;48.262;11.586;2022-12-07T06:01:35;21.50;;;7.43;;
2884;SDS011;54691;48.262;11.586;2022-12-07T06:08:32;16.90;;;6.40;;
2884;SDS011;54691;48.262;11.586;2022-12-07T06:15:47;19.27;;;6.60;;
2884;SDS011;54691;48.262;11.586;2022-12-07T06:22:44;17.92;;;7.03;;
2884;SDS011;54691;48.262;11.586;2022-12-07T06:29:41;16.97;;;6.40;;
2884;SDS011;54691;48.262;11.586;2022-12-07T06:36:38;23.98;;;7.50;;
2884;SDS011;54691;48.262;11.586;2022-12-07T06:43:35;20.30;;;7.50;;
2884;SDS011;54691;48.262;11.586;2022-12-07T06:50:33;19.60;;;7.08;;
2884;SDS011;54691;48.262;11.586;2022-12-07T06:57:30;20.65;;;8.03;;
2884;SDS011;54691;48.262;11.586;2022-12-07T07:04:27;26.85;;;8.20;;
2884;SDS011;54691;48.262;11.586;2022-12-07T07:11:24;19.62;;;7.33;;
2884;SDS011;54691;48.262;11.586;2022-12-07T07:18:21;16.42;;;6.75;;
2884;SDS011;54691;48.262;11.586;2022-12-07T07:25:18;24.20;;;8.10;;
2884;SDS011;54691;48.262;11.586;2022-12-07T07:32:15;23.62;;;8.53;;
2884;SDS011;54691;48.262;11.586;2022-12-07T07:39:12;22.85;;;8.60;;
2884;SDS011;54691;48.262;11.586;2022-12-07T07:46:09;20.55;;;7.67;;
2884;SDS011;54691;48.262;11.586;2022-12-07T07:53:06;20.80;;;7.92;;
2884;SDS011;54691;48.262;11.586;2022-12-07T08:00:04;16.95;;;7.40;;
2884;SDS011;54691;48.262;11.586;2022-12-07T08:07:01;25.05;;;9.53;;
2884;SDS011;54691;48.262;11.586;2022-12-07T08:13:59;20.50;;;8.48;;
2884;SDS011;54691;48.262;11.586;2022-12-07T08:20:59;21.90;;;8.58;;
2884;SDS011;54691;48.262;11.586;2022-12-07T08:27:57;25.27;;;9.95;;
2884;SDS011;54691;48.262;11.586;2022-12-07T08:34:55;22.55;;;9.23;;
2884;SDS011;54691;48.262;11.586;2022-12-07T08:41:52;19.45;;;8.23;;
2884;SDS011;54691;48.262;11.586;2022-12-07T08:48:56;20.88;;;8.68;;
2884;SDS011;54691;48.262;11.586;2022-12-07T08:52:25;21.95;;;9.35;;
2884;SDS011;54691;48.262;11.586;2022-12-07T08:59:22;20.50;;;9.65;;
2884;SDS011;54691;48.262;11.586;2022-12-07T09:06:20;22.87;;;9.40;;
2884;SDS011;54691;48.262;11.586;2022-12-07T09:13:17;25.88;;;8.28;;
2884;SDS011;54691;48.262;11.586;2022-12-07T09:20:14;19.80;;;9.23;;
2884;SDS011;54691;48.262;11.586;2022-12-07T09:27:11;17.42;;;8.45;;
2884;SDS011;54691;48.262;11.586;2022-12-07T09:34:08;13.25;;;6.67;;
2884;SDS011;54691;48.262;11.586;2022-12-07T09:41:06;16.10;;;6.97;;
2884;SDS011;54691;48.262;11.586;2022-12-07T09:48:03;12.25;;;5.55;;
2884;SDS011;54691;48.262;11.586;2022-12-07T09:55:00;14.23;;;6.10;;
2884;SDS011;54691;48.262;11.586;2022-12-07T10:02:04;12.65;;;6.42;;
2884;SDS011;54691;48.262;11.586;2022-12-07T10:08:58;14.93;;;6.80;;
2884;SDS011;54691;48.262;11.586;2022-12-07T10:15:56;14.70;;;6.12;;
2884;SDS011;54691;48.262;11.586;2022-12-07T10:22:54;12.60;;;4.55;;
2884;SDS011;54691;48.262;11.586;2022-12-07T10:29:52;11.83;;;4.60;;
2884;SDS011;54691;48.262;11.586;2022-12-07T10:36:49;9.33;;;3.58;;
2884;SDS011;54691;48.262;11.586;2022-12-07T10:43:47;9.93;;;4.25;;
2884;SDS011;54691;48.262;11.586;2022-12-07T10:54:30;9.40;;;4.25;;
2884;SDS011;54691;48.262;11.586;2022-12-07T10:58:09;21.67;;;5.10;;
2884;SDS011;54691;48.262;11.586;2022-12-07T11:08:49;10.23;;;4.08;;
2884;SDS011;54691;48.262;11.586;2022-12-07T11:12:34;8.13;;;3.60;;
2884;SDS011;54691;48.262;11.586;2022-12-07T11:16:07;7.30;;;3.17;;
2884;SDS011;54691;48.262;11.586;2022-12-07T11:19:43;7.50;;;3.80;;
2884;SDS011;54691;48.262;11.586;2022-12-07T11:37:13;5.30;;;2.47;;
2884;SDS011;54691;48.262;11.586;2022-12-07T11:47:56;4.10;;;2.45;;
2884;SDS011;54691;48.262;11.586;2022-12-07T11:54:55;7.67;;;3.98;;
2884;SDS011;54691;48.262;11.586;2022-12-07T12:08:56;12.35;;;5.58;;
2884;SDS011;54691;48.262;11.586;2022-12-07T12:29:55;9.75;;;3.08;;
2884;SDS011;54691;48.262;11.586;2022-12-07T12:36:54;10.00;;;4.28;;
2884;SDS011;54691;48.262;11.586;2022-12-07T12:43:52;10.30;;;4.78;;
2884;SDS011;54691;48.262;11.586;2022-12-07T12:51:06;7.85;;;4.60;;
2884;SDS011;54691;48.262;11.586;2022-12-07T12:58:34;9.53;;;5.05;;
2884;SDS011;54691;48.262;11.586;2022-12-07T13:11:55;12.93;;;4.95;;
2884;SDS011;54691;48.262;11.586;2022-12-07T13:18:49;6.37;;;3.12;;
2884;SDS011;54691;48.262;11.586;2022-12-07T13:33:03;10.35;;;4.90;;
2884;SDS011;54691;48.262;11.586;2022-12-07T13:39:55;13.18;;;5.50;;
2884;SDS011;54691;48.262;11.586;2022-12-07T13:46:54;13.00;;;4.50;;
2884;SDS011;54691;48.262;11.586;2022-12-07T13:54:10;14.00;;;4.70;;
2884;SDS011;54691;48.262;11.586;2022-12-07T14:00:52;9.68;;;4.83;;
2884;SDS011;54691;48.262;11.586;2022-12-07T14:07:54;7.92;;;4.17;;
2884;SDS011;54691;48.262;11.586;2022-12-07T14:14:51;12.37;;;5.00;;
2884;SDS011;54691;48.262;11.586;2022-12-07T14:21:49;8.85;;;5.12;;
2884;SDS011;54691;48.262;11.586;2022-12-07T14:28:47;11.50;;;5.12;;
2884;SDS011;54691;48.262;11.586;2022-12-07T14:35:44;9.68;;;4.47;;
2884;SDS011;54691;48.262;11.586;2022-12-07T14:42:41;10.10;;;4.42;;
2884;SDS011;54691;48.262;11.586;2022-12-07T14:49:39;8.55;;;4.10;;
2884;SDS011;54691;48.262;11.586;2022-12-07T14:56:36;13.18;;;4.03;;
2884;SDS011;54691;48.262;11.586;2022-12-07T15:03:33;11.97;;;3.70;;
2884;SDS011;54691;48.262;11.586;2022-12-07T15:10:33;8.75;;;3.72;;
2884;SDS011;54691;48.262;11.586;2022-12-07T15:21:12;11.97;;;5.25;;
2884;SDS011;54691;48.262;11.586;2022-12-07T15:31:39;15.43;;;4.80;;
2884;SDS011;54691;48.262;11.586;2022-12-07T15:38:36;15.28;;;4.45;;
2884;SDS011;54691;48.262;11.586;2022-12-07T15:45:33;13.78;;;4.37;;
2884;SDS011;54691;48.262;11.586;2022-12-07T15:52:30;17.35;;;8.05;;
2884;SDS011;54691;48.262;11.586;2022-12-07T15:59:32;9.05;;;3.80;;
2884;SDS011;54691;48.262;11.586;2022-12-07T16:06:30;10.85;;;5.28;;
2884;SDS011;54691;48.262;11.586;2022-12-07T16:13:27;12.28;;;6.83;;
2884;SDS011;54691;48.262;11.586;2022-12-07T16:20:24;15.20;;;5.65;;
2884;SDS011;54691;48.262;11.586;2022-12-07T16:27:23;10.72;;;4.33;;
2884;SDS011;54691;48.262;11.586;2022-12-07T16:34:22;12.45;;;4.70;;
2884;SDS011;54691;48.262;11.586;2022-12-07T16:41:20;13.05;;;6.17;;
2884;SDS011;54691;48.262;11.586;2022-12-07T16:48:17;13.98;;;6.10;;
2884;SDS011;54691;48.262;11.586;2022-12-07T16:55:14;15.78;;;7.05;;
2884;SDS011;54691;48.262;11.586;2022-12-07T17:02:12;14.13;;;5.30;;
2884;SDS011;54691;48.262;11.586;2022-12-07T17:09:09;10.80;;;4.92;;
2884;SDS011;54691;48.262;11.586;2022-12-07T17:16:07;12.63;;;4.17;;
2884;SDS011;54691;48.262;11.586;2022-12-07T17:23:04;12.47;;;5.37;;
2884;SDS011;54691;48.262;11.586;2022-12-07T17:30:02;11.28;;;4.90;;
2884;SDS011;54691;48.262;11.586;2022-12-07T17:37:00;15.05;;;5.55;;
2884;SDS011;54691;48.262;11.586;2022-12-07T17:43:57;14.80;;;5.10;;
2884;SDS011;54691;48.262;11.586;2022-12-07T17:50:58;12.50;;;5.03;;
2884;SDS011;54691;48.262;11.586;2022-12-07T17:54:43;15.45;;;5.85;;
2884;SDS011;54691;48.262;11.586;2022-12-07T18:01:40;16.52;;;5.75;;
2884;SDS011;54691;48.262;11.586;2022-12-07T18:08:37;17.77;;;5.55;;
2884;SDS011;54691;48.262;11.586;2022-12-07T18:15:34;15.68;;;6.50;;
2884;SDS011;54691;48.262;11.586;2022-12-07T18:22:31;18.48;;;6.55;;
2884;SDS011;54691;48.262;11.586;2022-12-07T18:29:28;13.38;;;6.33;;
2884;SDS011;54691;48.262;11.586;2022-12-07T18:36:25;17.35;;;6.28;;
2884;SDS011;54691;48.262;11.586;2022-12-07T18:43:23;21.55;;;7.25;;
2884;SDS011;54691;48.262;11.586;2022-12-07T18:50:20;17.35;;;7.53;;
2884;SDS011;54691;48.262;11.586;2022-12-07T18:57:17;15.20;;;5.45;;
2884;SDS011;54691;48.262;11.586;2022-12-07T19:04:14;14.78;;;5.75;;
2884;SDS011;54691;48.262;11.586;2022-12-07T19:11:18;25.68;;;7.67;;
2884;SDS011;54691;48.262;11.586;2022-12-07T19:15:05;22.45;;;8.13;;
2884;SDS011;54691;48.262;11.586;2022-12-07T19:22:02;22.22;;;6.28;;
2884;SDS011;54691;48.262;11.586;2022-12-07T19:28:59;23.00;;;7.50;;
2884;SDS011;54691;48.262;11.586;2022-12-07T19:35:57;24.47;;;8.30;;
2884;SDS011;54691;48.262;11.586;2022-12-07T19:42:54;20.45;;;6.87;;
2884;SDS011;54691;48.262;11.586;2022-12-07T19:49:51;24.20;;;8.73;;
2884;SDS011;54691;48.262;11.586;2022-12-07T19:56:49;20.57;;;7.00;;
2884;SDS011;54691;48.262;11.586;2022-12-07T20:03:46;17.92;;;7.58;;
2884;SDS011;54691;48.262;11.586;2022-12-07T20:10:44;16.37;;;6.90;;
2884;SDS011;54691;48.262;11.586;2022-12-07T20:17:42;21.27;;;8.45;;
2884;SDS011;54691;48.262;11.586;2022-12-07T20:24:39;20.77;;;7.50;;
2884;SDS011;54691;48.262;11.586;2022-12-07T20:31:36;41.23;;;10.20;;
2884;SDS011;54691;48.262;11.586;2022-12-07T20:38:33;20.17;;;8.20;;
2884;SDS011;54691;48.262;11.586;2022-12-07T20:45:48;22.03;;;8.10;;
2884;SDS011;54691;48.262;11.586;2022-12-07T20:52:45;26.27;;;9.75;;
2884;SDS011;54691;48.262;11.586;2022-12-07T20:59:42;24.23;;;9.25;;
2884;SDS011;54691;48.262;11.586;2022-12-07T21:06:39;24.10;;;9.80;;
2884;SDS011;54691;48.262;11.586;2022-12-07T21:13:36;30.85;;;11.28;;
2884;SDS011;54691;48.262;11.586;2022-12-07T21:20:34;26.50;;;8.55;;
2884;SDS011;54691;48.262;11.586;2022-12-07T21:27:30;22.80;;;7.85;;
2884;SDS011;54691;48.262;11.586;2022-12-07T21:34:27;23.52;;;8.83;;
2884;SDS011;54691;48.262;11.586;2022-12-07T21:41:27;21.48;;;8.95;;
2884;SDS011;54691;48.262;11.586;2022-12-07T21:48:24;25.27;;;9.05;;
2884;SDS011;54691;48.262;11.586;2022-12-07T21:55:21;24.30;;;9.70;;
2884;SDS011;54691;48.262;11.586;2022-12-07T22:02:18;31.25;;;9.95;;
2884;SDS011;54691;48.262;11.586;2022-12-07T22:09:15;24.45;;;9.23;;
2884;SDS011;54691;48.262;11.586;2022-12-07T22:16:13;31.07;;;9.08;;
2884;SDS011;54691;48.262;11.586;2022-12-07T22:23:10;18.87;;;7.60;;
2884;SDS011;54691;48.262;11.586;2022-12-07T22:30:08;21.90;;;8.30;;
2884;SDS011;54691;48.262;11.586;2022-12-07T22:37:05;20.23;;;8.08;;
2884;SDS011;54691;48.262;11.586;2022-12-07T22:44:03;21.82;;;7.33;;
2884;SDS011;54691;48.262;11.586;2022-12-07T22:51:01;21.70;;;8.58;;
2884;SDS011;54691;48.262;11.586;2022-12-07T22:57:58;20.40;;;8.05;;
2884;SDS011;54691;48.262;11.586;2022-12-07T23:04:55;32.03;;;9.15;;
2884;SDS011;54691;48.262;11.586;2022-12-07T23:11:51;20.43;;;7.12;;
2884;SDS011;54691;48.262;11.586;2022-12-07T23:15:38;22.73;;;8.73;;
2884;SDS011;54691;48.262;11.586;2022-12-07T23:22:35;21.68;;;8.05;;
2884;SDS011;54691;48.262;11.586;2022-12-07T23:29:32;16.23;;;7.53;;
2884;SDS011;54691;48.262;11.586;2022-12-07T23:36:29;14.05;;;6.78;;
2884;SDS011;54691;48.262;11.586;2022-12-07T23:43:27;21.23;;;6.90;;
2884;SDS011;54691;48.262;11.586;2022-12-07T23:50:24;21.50;;;8.08;;
2884;SDS011;54691;48.262;11.586;2022-12-07T23:57:21;19.10;;;7.67;;
